createdAt,value
2023-05-09T09:34:12.625Z,1004.89
2023-05-09T09:35:18.227Z,1004.91
2023-05-09T09:36:18.214Z,1004.86
2023-05-09T09:37:18.195Z,1004.83
2023-05-09T09:38:18.174Z,1004.85
2023-05-09T09:39:18.175Z,1004.81
2023-05-09T09:40:18.307Z,1004.75
2023-05-09T09:41:18.146Z,1004.77
2023-05-09T09:42:18.134Z,1004.76
2023-05-09T09:43:18.122Z,1004.75
2023-05-09T09:44:18.128Z,1004.75
2023-05-09T09:45:18.100Z,1004.80
2023-05-09T09:46:18.127Z,1004.73
2023-05-09T09:47:18.068Z,1004.74
2023-05-09T09:48:18.066Z,1004.70
2023-05-09T09:49:18.128Z,1004.68
2023-05-09T09:50:18.221Z,1004.70
2023-05-09T09:51:18.003Z,1004.74
2023-05-09T09:52:18.034Z,1004.68
2023-05-09T09:53:18.008Z,1004.68
2023-05-09T09:54:18.002Z,1004.67
2023-05-09T09:55:17.982Z,1004.68
2023-05-09T09:56:17.989Z,1004.65
2023-05-09T09:57:17.969Z,1004.69
2023-05-09T09:58:32.247Z,1004.64
2023-05-09T09:59:32.226Z,1004.62
2023-05-09T10:00:32.229Z,1004.61
2023-05-09T10:01:32.295Z,1004.57
2023-05-09T10:02:32.254Z,1004.56
2023-05-09T10:03:32.203Z,1004.55
2023-05-09T10:04:32.249Z,1004.55
2023-05-09T10:05:32.164Z,1004.58
2023-05-09T10:06:32.164Z,1004.58
2023-05-09T10:07:32.148Z,1004.54
2023-05-09T10:08:32.124Z,1004.54
2023-05-09T10:09:32.131Z,1004.48
2023-05-09T10:10:32.107Z,1004.48
2023-05-09T10:11:32.128Z,1004.50
2023-05-09T10:12:32.073Z,1004.50
2023-05-09T10:13:32.132Z,1004.46
2023-05-09T10:14:34.845Z,1004.44
2023-05-09T10:15:41.321Z,1004.46
2023-05-09T10:16:43.701Z,1004.38
2023-05-09T10:17:32.283Z,1004.37
2023-05-09T10:18:32.271Z,1004.37
2023-05-09T10:19:32.034Z,1004.36
2023-05-09T10:20:32.079Z,1004.37
2023-05-09T10:21:31.985Z,1004.32
2023-05-09T10:22:31.969Z,1004.37
2023-05-09T10:23:31.996Z,1004.35
2023-05-09T10:24:31.979Z,1004.36
2023-05-09T10:25:31.972Z,1004.29
2023-05-09T10:26:31.940Z,1004.26
2023-05-09T10:27:31.923Z,1004.26
2023-05-09T10:28:31.910Z,1004.22
2023-05-09T10:29:31.923Z,1004.21
2023-05-09T10:30:33.963Z,1004.18
2023-05-09T10:31:31.945Z,1004.20
2023-05-09T10:32:31.874Z,1004.21
2023-05-09T10:33:31.871Z,1004.21
2023-05-09T10:34:31.881Z,1004.15
2023-05-09T10:35:31.870Z,1004.14
2023-05-09T10:36:31.905Z,1004.14
2023-05-09T10:37:33.569Z,1004.13
2023-05-09T10:38:31.817Z,1004.11
2023-05-09T10:39:31.794Z,1004.10
2023-05-09T10:40:31.791Z,1004.13
2023-05-09T10:41:31.774Z,1004.03
2023-05-09T10:42:31.767Z,1004.05
2023-05-09T10:43:32.228Z,1004.05
2023-05-09T10:44:31.756Z,1004.08
2023-05-09T10:45:31.794Z,1004.03
2023-05-09T10:46:31.824Z,1003.99
2023-05-09T10:47:31.756Z,1003.97
2023-05-09T10:48:31.706Z,1003.97
2023-05-09T10:49:31.711Z,1003.98
2023-05-09T10:50:31.672Z,1003.94
2023-05-09T10:51:31.706Z,1003.90
2023-05-09T10:52:31.743Z,1003.87
2023-05-09T10:53:31.674Z,1003.88
2023-05-09T10:54:31.634Z,1003.84
2023-05-09T10:55:31.652Z,1003.83
2023-05-09T10:56:31.626Z,1003.79
2023-05-09T10:57:31.616Z,1003.80
2023-05-09T10:58:31.598Z,1003.81
2023-05-09T10:59:31.595Z,1003.79
2023-05-09T11:00:31.595Z,1003.81
2023-05-09T11:01:31.659Z,1003.79
2023-05-09T11:02:31.561Z,1003.73
2023-05-09T11:03:31.613Z,1003.76
2023-05-09T11:04:31.549Z,1003.70
2023-05-09T11:05:31.558Z,1003.67
2023-05-09T11:06:31.540Z,1003.64
2023-05-09T11:07:31.541Z,1003.66
2023-05-09T11:08:31.602Z,1003.63
2023-05-09T11:09:31.543Z,1003.62
2023-05-09T11:10:31.483Z,1003.56
2023-05-09T11:11:31.484Z,1003.56
2023-05-09T11:12:31.499Z,1003.53
2023-05-09T11:13:31.531Z,1003.54
2023-05-09T11:14:31.466Z,1003.52
2023-05-09T11:15:31.463Z,1003.46
2023-05-09T11:16:31.484Z,1003.44
2023-05-09T11:17:31.493Z,1003.38
2023-05-09T11:18:31.437Z,1003.33
2023-05-09T11:19:31.436Z,1003.33
2023-05-09T11:20:31.422Z,1003.27
2023-05-09T11:21:31.392Z,1003.33
2023-05-09T11:22:31.407Z,1003.31
2023-05-09T11:23:31.386Z,1003.34
2023-05-09T11:24:31.463Z,1003.33
2023-05-09T11:25:31.373Z,1003.38
2023-05-09T11:26:31.344Z,1003.28
2023-05-09T11:27:31.359Z,1003.23
2023-05-09T11:28:31.345Z,1003.23
2023-05-09T11:29:31.325Z,1003.26
2023-05-09T11:30:31.308Z,1003.25
2023-05-09T11:31:31.319Z,1003.17
2023-05-09T11:32:31.348Z,1003.18
2023-05-09T11:33:31.317Z,1003.17
2023-05-09T11:34:31.301Z,1003.14
2023-05-09T11:35:31.302Z,1003.09
2023-05-09T11:36:31.273Z,1003.06
2023-05-09T11:37:31.314Z,1003.08
2023-05-09T11:38:31.263Z,1003.04
2023-05-09T11:39:31.239Z,1003.04
2023-05-09T11:40:31.312Z,1003.01
2023-05-09T11:41:31.223Z,1003.01
2023-05-09T11:42:31.238Z,1003.02
2023-05-09T11:43:31.229Z,1003.00
2023-05-09T11:44:31.200Z,1002.98
2023-05-09T11:45:31.190Z,1002.92
2023-05-09T11:46:31.262Z,1002.89
2023-05-09T11:47:31.220Z,1002.88
2023-05-09T11:48:31.175Z,1002.88
2023-05-09T11:49:31.165Z,1002.86
2023-05-09T11:55:58.514Z,1002.77
2023-05-09T11:56:58.474Z,1002.74
2023-05-09T11:57:58.428Z,1002.73
2023-05-09T11:58:58.390Z,1002.76
2023-05-09T11:59:58.394Z,1002.76
2023-05-09T12:00:58.417Z,1002.71
2023-05-09T12:01:58.383Z,1002.69
2023-05-09T12:02:58.462Z,1002.72
2023-05-09T12:03:58.453Z,1002.70
2023-05-09T12:04:58.314Z,1002.70
2023-05-09T12:05:58.322Z,1002.71
2023-05-09T12:06:58.307Z,1002.69
2023-05-09T12:07:58.293Z,1002.66
2023-05-09T12:08:58.291Z,1002.62
2023-05-09T12:09:58.305Z,1002.66
2023-05-09T12:10:58.270Z,1002.67
2023-05-09T12:11:58.351Z,1002.64
2023-05-09T12:12:58.298Z,1002.62
2023-05-09T12:13:58.251Z,1002.61
2023-05-09T12:14:58.249Z,1002.62
2023-05-09T12:15:58.223Z,1002.56
2023-05-09T12:20:08.187Z,1002.51
2023-05-09T12:21:08.167Z,1002.50
2023-05-09T12:22:08.184Z,1002.48
2023-05-09T12:23:08.170Z,1002.47
2023-05-09T12:24:08.125Z,1002.49
2023-05-09T12:25:08.140Z,1002.45
2023-05-09T12:26:08.114Z,1002.42
2023-05-09T12:27:08.196Z,1002.41
2023-05-09T12:28:08.118Z,1002.43
2023-05-09T12:29:08.143Z,1002.41
2023-05-09T12:30:08.093Z,1002.37
2023-05-09T12:31:08.093Z,1002.35
2023-05-09T12:32:08.065Z,1002.34
2023-05-09T12:33:08.126Z,1002.30
2023-05-09T12:34:08.034Z,1002.31
2023-05-09T12:35:08.068Z,1002.26
2023-05-09T12:36:08.026Z,1002.25
2023-05-09T12:37:08.012Z,1002.23
2023-05-09T12:38:08.014Z,1002.19
2023-05-09T12:39:07.996Z,1002.16
2023-05-09T12:40:08.017Z,1002.19
2023-05-09T12:41:12.998Z,1002.15
2023-05-09T12:42:07.974Z,1002.13
2023-05-09T12:43:08.056Z,1002.14
2023-05-09T12:44:07.939Z,1002.17
2023-05-09T12:45:07.966Z,1002.15
2023-05-09T12:47:47.287Z,1002.07
2023-05-09T12:48:47.241Z,1002.08
2023-05-09T12:49:47.239Z,1002.04
2023-05-09T12:50:47.234Z,1002.01
2023-05-09T12:51:47.213Z,1002.02
2023-05-09T12:52:58.993Z,1002.07
2023-05-09T12:53:47.193Z,1002.02
2023-05-09T12:54:47.181Z,1001.98
2023-05-09T12:55:47.159Z,1001.97
2023-05-09T12:56:47.168Z,1001.91
2023-05-09T12:57:47.160Z,1001.96
2023-05-09T12:58:47.216Z,1001.91
2023-05-09T12:59:47.155Z,1001.93
2023-05-09T13:00:47.134Z,1001.94
2023-05-09T13:01:47.111Z,1001.95
2023-05-09T13:02:47.183Z,1001.94
2023-05-09T13:03:47.118Z,1001.92
2023-05-09T13:04:47.063Z,1001.90
2023-05-09T13:05:47.084Z,1001.85
2023-05-09T13:06:47.103Z,1001.88
2023-05-09T13:07:47.124Z,1001.88
2023-05-09T13:08:47.044Z,1001.78
2023-05-09T13:09:47.072Z,1001.79
2023-05-09T13:10:47.004Z,1001.80
2023-05-09T13:11:47.050Z,1001.80
2023-05-09T13:12:47.032Z,1001.77
2023-05-09T13:13:47.007Z,1001.72
2023-05-09T13:14:47.120Z,1001.73
2023-05-09T13:15:46.992Z,1001.71
2023-05-09T13:48:37.075Z,1001.31
2023-05-09T13:49:37.002Z,1001.31
2023-05-09T13:50:36.960Z,1001.26
2023-05-09T13:51:36.974Z,1001.23
